Time;durP1;ratioP1;P1;durP2;ratioP2;P2;SDS_P1;SDS_P2;PMS_P1;PMS_P2;Temp;Humidity;BMP_temperature;BMP_pressure;BME280_temperature;BME280_humidity;BME280_pressure;Samples;Min_cycle;Max_cycle;Signal;HPM_P1;HPM_P2
2021/09/07 00:00:50;;;;;;;12.98;7.75;;;;;;;13.93;74.54;101078.97;5137118;27;20050;-75
2021/09/07 00:03:19;;;;;;;16.33;8.18;;;;;;;14.02;74.05;101080.25;5137952;27;20046;-75
2021/09/07 00:05:48;;;;;;;13.23;8.02;;;;;;;14.09;73.62;101076.22;5136982;27;20416;-75
2021/09/07 00:08:16;;;;;;;15.55;7.45;;;;;;;14.17;73.15;101079.28;5137225;27;20477;-75
2021/09/07 00:10:46;;;;;;;14.82;7.47;;;;;;;14.07;73.64;101078.13;5136888;27;20035;-73
2021/09/07 00:13:14;;;;;;;17.35;8.13;;;;;;;13.96;74.14;101083.28;5137262;27;20096;-73
2021/09/07 00:15:43;;;;;;;17.92;8.70;;;;;;;13.86;74.71;101080.31;5136746;27;20053;-73
2021/09/07 00:18:11;;;;;;;15.32;7.93;;;;;;;13.75;75.18;101083.63;5137125;27;20053;-73
2021/09/07 00:20:41;;;;;;;16.17;8.43;;;;;;;13.75;75.33;101078.28;5136957;27;20050;-73
2021/09/07 00:23:09;;;;;;;12.60;8.52;;;;;;;13.67;75.86;101077.88;5136996;27;20051;-73
2021/09/07 00:25:37;;;;;;;14.35;8.45;;;;;;;13.68;75.66;101079.59;5136766;27;20126;-74
2021/09/07 00:28:10;;;;;;;12.02;7.65;;;;;;;13.49;77.10;101078.97;5136711;27;20473;-73
2021/09/07 00:30:40;;;;;;;12.38;8.13;;;;;;;13.60;76.33;101075.63;5136686;27;20129;-73
2021/09/07 00:33:09;;;;;;;15.25;8.60;;;;;;;13.72;75.60;101078.47;5136941;27;20039;-73
2021/09/07 00:35:41;;;;;;;16.45;8.15;;;;;;;13.74;75.34;101075.69;5136534;27;20046;-74
2021/09/07 00:38:11;;;;;;;16.65;8.27;;;;;;;13.80;75.24;101069.06;5136546;27;20046;-74
2021/09/07 00:40:40;;;;;;;18.67;8.15;;;;;;;13.72;75.29;101078.47;5136531;27;20073;-73
2021/09/07 00:43:08;;;;;;;17.02;8.50;;;;;;;13.60;75.97;101073.81;5136535;27;20047;-74
2021/09/07 00:45:36;;;;;;;16.42;8.93;;;;;;;13.60;76.08;101073.81;5136295;27;20040;-74
2021/09/07 00:48:05;;;;;;;16.48;8.35;;;;;;;13.56;76.43;101066.06;5136713;27;20088;-74
2021/09/07 00:50:33;;;;;;;16.30;8.55;;;;;;;13.64;76.06;101067.34;5136203;27;20035;-74
2021/09/07 00:53:03;;;;;;;15.20;7.97;;;;;;;13.66;75.89;101069.91;5136396;27;20092;-74
2021/09/07 00:55:36;;;;;;;13.68;8.48;;;;;;;13.63;76.23;101067.44;5136452;27;20070;-74
2021/09/07 00:58:08;;;;;;;14.10;7.80;;;;;;;13.68;75.91;101071.53;5136394;27;20125;-74
2021/09/07 01:00:39;;;;;;;16.25;8.20;;;;;;;13.47;77.06;101080.88;5136247;27;20054;-74
2021/09/07 01:03:07;;;;;;;14.23;8.48;;;;;;;13.55;77.04;101069.69;5136376;27;20073;-74
2021/09/07 01:05:35;;;;;;;16.92;7.75;;;;;;;13.62;76.59;101071.94;5117163;27;20065;-74
2021/09/07 01:08:05;;;;;;;16.20;8.77;;;;;;;13.60;76.36;101068.44;5136231;27;20039;-71
2021/09/07 01:10:36;;;;;;;16.45;8.05;;;;;;;13.50;76.66;101078.00;5135934;27;20040;-72
2021/09/07 01:13:04;;;;;;;16.45;8.48;;;;;;;13.33;77.67;101076.34;5136170;27;20039;-72
2021/09/07 01:15:33;;;;;;;17.23;7.90;;;;;;;13.39;77.35;101077.78;5135559;27;20039;-73
2021/09/07 01:18:01;;;;;;;16.38;8.77;;;;;;;13.45;77.14;101075.59;5135811;27;20046;-72
2021/09/07 01:20:30;;;;;;;15.93;8.95;;;;;;;13.43;77.01;101071.31;5136060;27;20066;-72
2021/09/07 01:22:58;;;;;;;15.50;8.95;;;;;;;13.24;78.11;101065.28;5117193;27;20055;-73
2021/09/07 01:25:28;;;;;;;15.65;8.52;;;;;;;13.17;78.67;101070.97;5136228;27;20084;-73
2021/09/07 01:27:56;;;;;;;15.57;9.02;;;;;;;13.15;78.78;101072.88;5135759;27;20064;-73
2021/09/07 01:30:24;;;;;;;17.92;8.77;;;;;;;13.04;79.75;101086.03;5135747;27;20493;-72
2021/09/07 01:32:53;;;;;;;15.90;8.50;;;;;;;13.05;79.83;101076.19;5135158;27;20046;-72
2021/09/07 01:35:21;;;;;;;19.15;9.23;;;;;;;13.05;79.60;101077.03;5135675;27;20035;-72
2021/09/07 01:37:51;;;;;;;14.43;8.63;;;;;;;12.98;80.28;101072.97;5135227;27;20047;-72
2021/09/07 01:40:19;;;;;;;14.50;8.35;;;;;;;13.00;80.25;101062.16;5135368;27;20054;-72
2021/09/07 01:42:49;;;;;;;15.02;8.48;;;;;;;13.02;80.23;101069.16;5116821;27;20058;-72
2021/09/07 01:45:17;;;;;;;17.20;9.38;;;;;;;12.99;80.45;101074.69;5117263;27;20080;-72
2021/09/07 01:47:50;;;;;;;14.38;8.65;;;;;;;12.98;81.14;101080.16;5135188;27;20037;-72
2021/09/07 01:50:18;;;;;;;17.40;8.68;;;;;;;12.93;81.67;101072.34;5117444;27;20404;-72
2021/09/07 01:52:47;;;;;;;16.95;8.63;;;;;;;12.89;82.10;101078.84;5134855;27;20047;-73
2021/09/07 01:55:16;;;;;;;16.40;8.25;;;;;;;13.03;81.30;101068.22;5134982;27;20055;-73
2021/09/07 01:57:44;;;;;;;17.27;8.50;;;;;;;13.15;80.26;101067.53;5134786;27;20050;-73
2021/09/07 02:00:16;;;;;;;15.60;8.77;;;;;;;13.18;80.37;101072.69;5135055;27;20043;-72
2021/09/07 02:02:44;;;;;;;16.13;8.55;;;;;;;13.02;80.96;101070.97;5134880;27;20054;-72
2021/09/07 02:05:12;;;;;;;17.45;8.48;;;;;;;12.91;81.37;101071.59;5135364;27;20046;-72
2021/09/07 02:07:41;;;;;;;16.52;8.30;;;;;;;13.02;80.84;101066.47;5134627;27;20043;-71
2021/09/07 02:10:12;;;;;;;15.30;8.10;;;;;;;12.86;81.50;101076.34;5134767;27;20050;-71
2021/09/07 02:12:41;;;;;;;17.35;8.35;;;;;;;12.74;82.04;101067.22;5134668;27;20104;-71
2021/09/07 02:15:11;;;;;;;13.98;7.90;;;;;;;12.73;82.83;101064.59;5134879;27;20035;-70
2021/09/07 02:17:42;;;;;;;16.50;8.10;;;;;;;12.65;83.15;101066.88;5133776;27;20130;-70
2021/09/07 02:20:12;;;;;;;16.33;9.10;;;;;;;12.69;82.92;101058.56;5134710;27;20381;-70
2021/09/07 02:22:41;;;;;;;14.70;8.82;;;;;;;12.69;83.37;101057.69;5134515;27;20051;-70
2021/09/07 02:25:10;;;;;;;15.70;8.55;;;;;;;12.62;83.81;101062.53;5135065;27;20047;-70
2021/09/07 02:27:38;;;;;;;17.15;8.90;;;;;;;12.53;84.55;101053.19;5134454;27;20130;-71
2021/09/07 02:30:08;;;;;;;16.02;8.65;;;;;;;12.78;83.60;101055.38;5134504;27;20497;-71
2021/09/07 02:32:36;;;;;;;17.73;9.45;;;;;;;12.69;83.62;101057.69;5133990;27;20043;-76
2021/09/07 02:35:10;;;;;;;19.98;9.20;;;;;;;12.63;84.24;101058.88;5134401;27;20043;-71
2021/09/07 02:37:39;;;;;;;14.98;9.10;;;;;;;12.74;83.93;101058.28;5134316;27;20043;-71
2021/09/07 02:40:08;;;;;;;20.42;9.30;;;;;;;12.48;84.72;101054.41;5134298;27;20079;-71
2021/09/07 02:42:40;;;;;;;17.02;8.90;;;;;;;12.34;86.44;101049.81;5134000;27;20515;-75
2021/09/07 02:45:08;;;;;;;15.77;9.25;;;;;;;12.44;86.46;101056.38;5134294;27;20045;-72
2021/09/07 02:47:40;;;;;;;17.48;8.98;;;;;;;12.52;86.05;101053.28;5134004;27;20043;-75
2021/09/07 02:50:12;;;;;;;14.57;8.23;;;;;;;12.53;86.23;101057.69;5134507;27;20046;-71
2021/09/07 02:52:40;;;;;;;15.70;9.20;;;;;;;12.41;86.74;101056.56;5133770;27;20043;-72
2021/09/07 02:55:09;;;;;;;14.02;8.18;;;;;;;12.56;85.96;101053.03;5134412;27;20081;-71
2021/09/07 02:57:39;;;;;;;13.73;8.85;;;;;;;12.40;86.80;101046.81;5133809;27;20070;-72
2021/09/07 03:00:08;;;;;;;13.82;8.93;;;;;;;12.13;89.15;101048.31;5134088;27;20447;-71
2021/09/07 03:02:37;;;;;;;16.27;9.52;;;;;;;12.31;88.61;101047.31;5134172;27;20055;-71
2021/09/07 03:05:06;;;;;;;18.27;9.52;;;;;;;12.31;88.15;101048.16;5134308;27;20113;-71
2021/09/07 03:07:37;;;;;;;17.00;9.10;;;;;;;12.16;89.15;101053.47;5116180;28;20077;-71
2021/09/07 03:10:06;;;;;;;20.30;9.73;;;;;;;12.06;90.30;101052.25;5133841;27;20036;-70
2021/09/07 03:12:35;;;;;;;16.63;9.73;;;;;;;12.08;90.41;101051.25;5133997;27;20077;-70
2021/09/07 03:15:03;;;;;;;15.73;9.02;;;;;;;12.08;90.32;101050.38;5133586;27;20096;-70
2021/09/07 03:17:32;;;;;;;17.80;9.00;;;;;;;12.01;90.98;101056.03;5133713;27;20546;-70
2021/09/07 03:20:00;;;;;;;20.08;8.90;;;;;;;11.99;91.19;101044.56;5133557;28;20466;-70
2021/09/07 03:22:31;;;;;;;16.67;9.25;;;;;;;11.95;91.37;101053.69;5134129;28;20039;-70
2021/09/07 03:25:01;;;;;;;13.13;8.13;;;;;;;12.06;90.92;101054.91;5133724;28;20405;-70
2021/09/07 03:27:29;;;;;;;15.57;8.73;;;;;;;12.06;90.82;101057.59;5133813;28;20043;-70
2021/09/07 03:30:00;;;;;;;20.00;8.55;;;;;;;12.01;90.79;101055.19;5137331;27;20039;-70
2021/09/07 03:32:29;;;;;;;18.70;9.02;;;;;;;11.83;91.57;101062.34;5138035;27;20095;-70
2021/09/07 03:34:57;;;;;;;16.50;8.30;;;;;;;11.95;91.48;101056.34;5137573;27;20122;-70
2021/09/07 03:37:25;;;;;;;17.27;9.30;;;;;;;11.82;92.09;101057.97;5138189;27;20114;-71
2021/09/07 03:39:54;;;;;;;16.10;8.55;;;;;;;11.92;91.93;101055.66;5137758;27;20047;-73
2021/09/07 03:42:23;;;;;;;14.90;8.30;;;;;;;11.86;91.91;101062.19;5137835;27;20043;-73
2021/09/07 03:44:51;;;;;;;14.93;7.60;;;;;;;11.73;92.72;101061.94;5137587;27;20035;-75
2021/09/07 03:47:19;;;;;;;15.00;8.15;;;;;;;11.71;93.17;101057.63;5137605;27;20043;-74
2021/09/07 03:49:51;;;;;;;14.68;8.38;;;;;;;11.83;92.55;101054.34;5137316;27;20071;-74
2021/09/07 03:52:22;;;;;;;14.27;8.63;;;;;;;12.02;91.40;101062.25;5138047;27;20040;-74
2021/09/07 03:54:52;;;;;;;17.48;8.38;;;;;;;11.91;91.94;101057.47;5137317;27;20084;-74
2021/09/07 03:57:26;;;;;;;14.93;8.15;;;;;;;11.87;92.26;101055.91;5137676;27;20043;-73
2021/09/07 03:59:56;;;;;;;14.85;8.40;;;;;;;11.70;92.95;101055.91;5137230;27;20092;-73
2021/09/07 04:02:28;;;;;;;15.48;8.18;;;;;;;11.57;94.41;101060.13;5137439;27;20046;-74
2021/09/07 04:04:57;;;;;;;17.75;8.75;;;;;;;11.62;94.48;101053.63;5137325;27;20503;-71
2021/09/07 04:07:26;;;;;;;14.65;7.90;;;;;;;11.67;94.00;101059.56;5137395;27;20049;-71
2021/09/07 04:09:54;;;;;;;14.63;8.05;;;;;;;11.72;93.64;101060.22;5137085;27;20043;-71
2021/09/07 04:12:22;;;;;;;13.85;8.70;;;;;;;11.82;93.28;101052.63;5136955;27;20465;-71
2021/09/07 04:14:52;;;;;;;18.83;8.75;;;;;;;11.61;94.00;101056.38;5136623;27;20493;-72
2021/09/07 04:17:21;;;;;;;16.05;7.90;;;;;;;11.53;94.73;101058.56;5137319;27;20115;-72
2021/09/07 04:19:49;;;;;;;16.17;8.63;;;;;;;11.64;94.01;101053.53;5136951;27;20039;-72
2021/09/07 04:22:20;;;;;;;16.02;9.00;;;;;;;11.64;94.11;101058.88;5137229;27;20070;-72
2021/09/07 04:24:48;;;;;;;16.27;8.80;;;;;;;11.67;93.99;101059.56;5136275;27;20052;-72
2021/09/07 04:27:16;;;;;;;18.25;8.65;;;;;;;11.69;93.37;101064.88;5136922;27;20046;-72
2021/09/07 04:29:44;;;;;;;18.88;9.13;;;;;;;11.61;93.93;101067.94;5136699;27;20043;-72
2021/09/07 04:32:14;;;;;;;14.25;8.07;;;;;;;11.76;93.17;101068.94;5136874;27;20047;-73
2021/09/07 04:34:42;;;;;;;18.60;9.43;;;;;;;11.82;92.86;101068.66;5136617;27;20038;-73
2021/09/07 04:37:10;;;;;;;17.20;8.60;;;;;;;11.86;92.26;101070.22;5136660;27;20477;-74
2021/09/07 04:39:39;;;;;;;19.35;8.35;;;;;;;11.94;92.41;101076.03;5135826;27;20035;-73
2021/09/07 04:42:07;;;;;;;17.75;9.05;;;;;;;12.02;91.70;101073.81;5136378;27;20078;-73
2021/09/07 04:44:36;;;;;;;19.33;9.38;;;;;;;12.03;91.45;101080.88;5137105;27;20393;-73
2021/09/07 04:47:04;;;;;;;17.10;8.57;;;;;;;12.01;91.57;101077.44;5136268;27;20058;-71
2021/09/07 04:49:35;;;;;;;14.27;8.93;;;;;;;12.19;90.84;101080.06;5136295;27;20108;-71
2021/09/07 04:52:03;;;;;;;14.65;8.52;;;;;;;12.37;89.13;101076.41;5136604;27;20051;-73
2021/09/07 04:54:32;;;;;;;13.32;8.57;;;;;;;12.53;87.99;101085.31;5136074;27;20035;-72
2021/09/07 04:57:02;;;;;;;17.35;8.55;;;;;;;12.66;86.56;101081.97;5136190;27;20031;-70
2021/09/07 04:59:30;;;;;;;15.18;8.40;;;;;;;12.66;86.16;101088.19;5118353;27;20062;-75
2021/09/07 05:01:58;;;;;;;16.83;8.57;;;;;;;12.40;87.25;101088.75;5135881;27;20382;-74
2021/09/07 05:04:28;;;;;;;16.60;8.70;;;;;;;12.53;86.75;101096.00;5136448;27;20043;-73
2021/09/07 05:06:58;;;;;;;15.75;8.65;;;;;;;12.56;86.16;101100.34;5135994;27;20058;-73
2021/09/07 05:09:27;;;;;;;14.95;8.05;;;;;;;12.71;84.57;101093.25;5135870;27;20039;-73
2021/09/07 05:11:55;;;;;;;14.98;7.88;;;;;;;12.65;84.45;101089.13;5135456;27;20550;-75
2021/09/07 05:14:23;;;;;;;14.35;8.52;;;;;;;12.43;84.93;101093.91;5136155;27;20089;-75
2021/09/07 05:16:52;;;;;;;18.83;8.30;;;;;;;12.44;85.57;101093.84;5135677;27;20043;-79
2021/09/07 05:19:20;;;;;;;14.73;8.23;;;;;;;12.68;83.87;101090.78;5135755;27;20508;-75
2021/09/07 05:21:48;;;;;;;16.42;8.40;;;;;;;12.81;83.09;101097.16;5135399;27;20044;-73
2021/09/07 05:24:19;;;;;;;13.02;7.60;;;;;;;12.73;82.87;101102.06;5132458;27;20056;-74
2021/09/07 05:26:47;;;;;;;14.07;7.95;;;;;;;12.83;82.36;101108.63;5112468;28;20036;-77
2021/09/07 05:29:15;;;;;;;15.15;8.27;;;;;;;12.72;83.17;101108.38;5114361;28;20135;-72
2021/09/07 05:31:43;;;;;;;14.75;7.75;;;;;;;12.82;82.32;101109.59;5112073;28;20066;-74
2021/09/07 05:34:11;;;;;;;15.27;7.88;;;;;;;12.79;82.54;101107.97;5114460;28;20047;-74
2021/09/07 05:36:40;;;;;;;16.83;8.43;;;;;;;13.00;81.56;101118.41;5114589;28;20036;-73
2021/09/07 05:39:08;;;;;;;15.82;8.40;;;;;;;13.15;80.86;101115.72;5104549;28;20055;-72
2021/09/07 05:41:42;;;;;;;16.52;8.20;;;;;;;13.28;80.32;101109.69;5114433;28;20043;-72
2021/09/07 05:44:12;;;;;;;15.13;7.80;;;;;;;13.25;79.91;101110.75;5114412;28;20104;-71
2021/09/07 05:46:41;;;;;;;17.13;8.60;;;;;;;13.14;80.51;101116.69;5114312;28;20417;-74
2021/09/07 05:49:10;;;;;;;14.90;7.88;;;;;;;13.31;79.12;101120.22;5114375;28;20486;-79
2021/09/07 05:51:38;;;;;;;13.80;8.00;;;;;;;13.40;79.32;101120.56;5114137;28;20052;-79
2021/09/07 05:54:09;;;;;;;16.90;8.05;;;;;;;13.56;77.92;101115.19;5114398;28;20044;-77
2021/09/07 05:56:37;;;;;;;15.82;8.13;;;;;;;13.93;76.17;101131.75;5114197;28;20038;-77
2021/09/07 05:59:07;;;;;;;13.38;6.95;;;;;;;14.08;74.86;101122.75;5113030;28;20101;-77
2021/09/07 06:01:37;;;;;;;16.90;7.75;;;;;;;14.09;74.23;101124.53;5114155;28;20500;-77
2021/09/07 06:04:09;;;;;;;14.52;7.78;;;;;;;14.20;74.51;101122.03;5111237;28;20430;-77
2021/09/07 06:06:37;;;;;;;16.35;8.10;;;;;;;14.23;73.78;101121.84;5113971;28;20040;-77
2021/09/07 06:09:05;;;;;;;15.15;7.88;;;;;;;14.45;72.77;101120.53;5113550;28;20473;-77
2021/09/07 06:11:38;;;;;;;14.57;7.93;;;;;;;14.64;72.08;101122.91;5113836;28;20458;-74
2021/09/07 06:14:10;;;;;;;15.90;7.30;;;;;;;14.79;69.91;101113.91;5113871;28;20043;-72
2021/09/07 06:16:38;;;;;;;14.75;7.60;;;;;;;14.84;69.68;101120.69;5113970;28;20542;-72
2021/09/07 06:19:06;;;;;;;15.75;7.57;;;;;;;15.05;69.47;101117.56;5113886;28;20097;-74
2021/09/07 06:21:37;;;;;;;14.25;7.35;;;;;;;15.11;67.44;101109.13;5113749;28;20482;-72
2021/09/07 06:24:06;;;;;;;14.00;7.43;;;;;;;14.94;68.43;101118.28;5113126;28;20428;-72
2021/09/07 06:26:34;;;;;;;13.98;6.90;;;;;;;15.27;66.70;101120.59;5113440;28;20043;-72
2021/09/07 06:29:03;;;;;;;13.50;7.40;;;;;;;15.74;65.38;101113.91;5113268;28;20044;-71
2021/09/07 06:31:33;;;;;;;13.02;7.40;;;;;;;16.14;62.54;101111.16;5113014;28;20040;-71
2021/09/07 06:34:01;;;;;;;14.32;7.00;;;;;;;16.11;61.96;101114.88;5113257;28;20043;-71
2021/09/07 06:36:29;;;;;;;14.55;6.55;;;;;;;16.07;62.17;101113.41;5112738;28;20555;-73
2021/09/07 06:38:57;;;;;;;16.67;7.07;;;;;;;16.36;60.75;101110.50;5113203;28;20074;-73
2021/09/07 06:41:26;;;;;;;13.20;6.80;;;;;;;16.57;59.57;101120.59;5113298;28;20401;-73
2021/09/07 06:43:54;;;;;;;12.88;6.72;;;;;;;16.82;57.70;101111.66;5112748;28;20032;-73
2021/09/07 06:46:23;;;;;;;13.27;6.78;;;;;;;17.36;56.30;101119.31;5113605;28;20424;-73
2021/09/07 06:48:52;;;;;;;14.05;7.13;;;;;;;17.14;57.00;101117.38;5113260;28;20050;-79
2021/09/07 06:51:21;;;;;;;13.57;6.80;;;;;;;17.56;55.89;101109.72;5113551;28;20044;-75
2021/09/07 06:53:49;;;;;;;13.90;6.75;;;;;;;17.63;55.82;101121.78;5113628;28;20074;-75
2021/09/07 06:56:17;;;;;;;15.23;7.70;;;;;;;17.15;55.54;101116.38;5095636;28;20058;-75
2021/09/07 06:58:48;;;;;;;17.80;7.47;;;;;;;17.12;56.19;101110.38;5113396;28;20092;-75
2021/09/07 07:01:16;;;;;;;11.43;6.65;;;;;;;17.09;55.55;101111.47;5113347;28;20482;-73
2021/09/07 07:03:45;;;;;;;14.85;6.97;;;;;;;16.98;55.85;101119.47;5113001;28;20049;-73
2021/09/07 07:06:17;;;;;;;10.07;5.72;;;;;;;16.97;56.45;101112.34;5113331;28;20042;-74
2021/09/07 07:08:46;;;;;;;15.52;7.05;;;;;;;17.00;56.40;101114.84;5113165;28;20096;-71
2021/09/07 07:11:14;;;;;;;12.15;6.20;;;;;;;17.09;55.90;101114.16;5112816;28;20047;-74
2021/09/07 07:13:42;;;;;;;14.63;6.75;;;;;;;17.28;55.86;101115.50;5112977;28;20047;-73
2021/09/07 07:16:11;;;;;;;13.90;6.10;;;;;;;17.40;55.52;101111.88;5110040;28;20050;-72
2021/09/07 07:18:40;;;;;;;15.73;6.68;;;;;;;17.40;56.57;101117.28;5113377;28;20044;-71
2021/09/07 07:21:08;;;;;;;24.20;7.30;;;;;;;17.51;55.54;101119.16;5113032;28;20439;-72
2021/09/07 07:23:38;;;;;;;27.38;7.20;;;;;;;17.62;55.39;101122.75;5113509;28;20051;-72
2021/09/07 07:26:09;;;;;;;;;;;;;;;17.57;55.00;101118.72;5113303;28;20051;-72
2021/09/07 07:28:37;;;;;;;11.88;6.47;;;;;;;17.45;55.64;101115.06;5113041;28;19926;-72
2021/09/07 07:31:06;;;;;;;20.88;6.82;;;;;;;17.54;55.20;101117.06;5113078;28;20036;-72
2021/09/07 07:33:34;;;;;;;23.50;7.28;;;;;;;17.48;54.94;101128.34;5112863;28;20048;-72
2021/09/07 07:36:03;;;;;;;14.25;5.80;;;;;;;17.69;54.15;101134.84;5112558;28;20134;-72
2021/09/07 07:38:31;;;;;;;17.67;5.88;;;;;;;17.62;54.09;101133.53;5113329;28;20093;-72
2021/09/07 07:41:01;;;;;;;28.52;6.20;;;;;;;17.57;54.70;101137.59;5113011;28;20047;-72
2021/09/07 07:43:30;;;;;;;19.60;5.78;;;;;;;17.56;54.80;101133.13;5113251;28;20040;-72
2021/09/07 07:45:58;;;;;;;14.25;6.03;;;;;;;17.71;54.29;101132.88;5112837;28;20036;-72
2021/09/07 07:48:26;;;;;;;13.60;6.78;;;;;;;17.88;54.39;101138.84;5113067;28;20047;-72
2021/09/07 07:50:54;;;;;;;17.27;5.78;;;;;;;17.90;53.83;101131.47;5112967;28;20050;-72
2021/09/07 07:53:22;;;;;;;14.70;6.32;;;;;;;17.94;53.19;101139.22;5112791;28;20094;-72
2021/09/07 07:55:51;;;;;;;15.80;5.93;;;;;;;18.02;53.32;101138.63;5094340;28;20055;-72
2021/09/07 07:58:27;;;;;;;21.73;5.97;;;;;;;18.02;53.63;101144.03;5112690;28;20134;-72
2021/09/07 08:00:55;;;;;;;41.67;7.93;;;;;;;18.16;53.28;101124.94;5112735;28;20063;-72
2021/09/07 08:03:25;;;;;;;12.75;5.95;;;;;;;18.00;53.41;101132.50;5112725;28;20043;-72
2021/09/07 08:05:54;;;;;;;15.57;5.80;;;;;;;18.11;53.78;101129.81;5112832;28;20591;-72
2021/09/07 08:08:22;;;;;;;14.88;5.45;;;;;;;18.40;53.09;101127.53;5112934;28;20493;-72
2021/09/07 08:10:53;;;;;;;12.65;5.72;;;;;;;18.62;52.48;101121.25;5113099;28;20052;-72
2021/09/07 08:13:21;;;;;;;10.32;5.70;;;;;;;18.55;52.42;101126.31;5112796;28;20047;-72
2021/09/07 08:15:51;;;;;;;14.50;5.22;;;;;;;18.47;52.94;101125.22;5114711;28;20139;-72
2021/09/07 08:18:21;;;;;;;15.35;5.72;;;;;;;18.64;52.82;101126.56;5116274;28;20043;-73
2021/09/07 08:20:50;;;;;;;14.60;5.43;;;;;;;18.77;51.91;101128.19;5116231;28;20040;-73
2021/09/07 08:23:18;;;;;;;11.40;5.32;;;;;;;18.84;51.26;101124.00;5116269;28;20098;-72
2021/09/07 08:25:47;;;;;;;12.43;5.80;;;;;;;18.92;50.94;101122.53;5116420;28;20043;-72
2021/09/07 08:28:15;;;;;;;15.15;6.07;;;;;;;19.06;50.37;101125.81;5116393;28;20044;-72
2021/09/07 08:30:47;;;;;;;17.95;5.95;;;;;;;18.99;50.74;101127.28;5116438;28;20118;-72
2021/09/07 08:33:18;;;;;;;12.90;6.50;;;;;;;18.93;51.02;101125.13;5098383;28;20055;-73
2021/09/07 08:35:47;;;;;;;10.98;5.68;;;;;;;19.06;51.08;101136.63;5116531;28;20378;-72
2021/09/07 08:38:17;;;;;;;18.33;5.07;;;;;;;19.24;50.85;101128.84;5116455;28;20089;-73
2021/09/07 08:40:46;;;;;;;22.45;7.22;;;;;;;19.44;50.19;101124.50;5116500;28;20047;-72
2021/09/07 08:43:14;;;;;;;17.58;5.80;;;;;;;19.67;49.44;101117.16;5115972;28;20075;-73
2021/09/07 08:45:44;;;;;;;12.98;5.63;;;;;;;19.76;48.96;101123.66;5116076;28;20039;-73
2021/09/07 08:48:13;;;;;;;14.30;5.78;;;;;;;19.82;48.82;101129.41;5097578;28;20048;-73
2021/09/07 08:50:44;;;;;;;13.65;6.18;;;;;;;19.87;48.31;101126.28;5116058;28;20058;-73
2021/09/07 08:53:15;;;;;;;13.27;6.22;;;;;;;19.76;48.51;101129.91;5115807;28;20406;-73
2021/09/07 08:55:45;;;;;;;13.35;6.00;;;;;;;19.87;48.29;101124.44;5115886;28;20036;-73
2021/09/07 08:58:14;;;;;;;15.32;6.32;;;;;;;19.70;48.76;101117.78;5115374;28;20070;-73
2021/09/07 09:00:48;;;;;;;15.18;6.13;;;;;;;19.80;48.65;101115.16;5097309;28;20520;-73
2021/09/07 09:03:16;;;;;;;18.08;6.28;;;;;;;19.90;48.53;101113.38;5115489;28;20054;-72
2021/09/07 09:05:49;;;;;;;13.45;5.85;;;;;;;20.04;47.97;101111.31;5115723;28;20050;-72
2021/09/07 09:08:19;;;;;;;18.20;5.82;;;;;;;20.19;47.54;101112.72;5115411;28;20044;-72
2021/09/07 09:10:47;;;;;;;12.38;5.53;;;;;;;20.12;47.84;101108.81;5115541;28;20043;-73
2021/09/07 09:13:18;;;;;;;17.77;6.20;;;;;;;20.23;48.72;101116.84;5115782;28;20044;-73
2021/09/07 09:16:02;;;;;;;17.52;6.15;;;;;;;20.37;47.46;101118.38;5097648;28;20047;-73
2021/09/07 09:18:39;;;;;;;14.20;6.05;;;;;;;20.61;46.62;101120.78;5115272;28;20414;-73
2021/09/07 09:21:24;;;;;;;15.15;5.78;;;;;;;20.60;46.92;101111.81;5115014;27;20039;-73
2021/09/07 09:24:12;;;;;;;12.07;5.78;;;;;;;20.66;46.84;101119.41;5115643;28;20108;-72
2021/09/07 09:26:52;;;;;;;12.38;5.82;;;;;;;20.88;46.19;101110.19;5115002;28;20142;-72
2021/09/07 09:29:21;;;;;;;12.88;6.30;;;;;;;20.92;46.25;101111.63;5097055;28;20062;-72
2021/09/07 09:31:54;;;;;;;11.60;6.10;;;;;;;21.09;45.68;101110.97;5115349;28;20487;-72
2021/09/07 09:34:23;;;;;;;11.25;6.03;;;;;;;21.20;44.68;101117.28;5115161;28;20043;-72
2021/09/07 09:37:03;;;;;;;14.38;5.85;;;;;;;21.27;44.85;101115.75;5114957;28;20398;-73
2021/09/07 09:39:36;;;;;;;10.55;5.88;;;;;;;21.41;43.97;101112.63;5115373;28;20126;-72
2021/09/07 09:42:05;;;;;;;14.00;6.57;;;;;;;21.31;44.38;101114.47;5114744;28;20044;-72
2021/09/07 09:44:34;;;;;;;13.95;6.68;;;;;;;21.35;44.44;101107.78;5115553;28;20409;-73
2021/09/07 09:47:03;;;;;;;19.95;6.75;;;;;;;21.47;43.88;101103.06;5114832;28;20044;-73
2021/09/07 09:49:33;;;;;;;25.33;7.40;;;;;;;21.60;43.44;101103.63;5115252;28;20048;-73
2021/09/07 09:52:05;;;;;;;14.77;5.90;;;;;;;21.67;43.52;101105.63;5114988;28;20071;-73
2021/09/07 09:54:35;;;;;;;11.27;5.88;;;;;;;22.04;42.60;101096.75;5114807;28;20039;-73
2021/09/07 09:57:06;;;;;;;13.77;5.65;;;;;;;22.02;42.34;101093.31;5114356;28;20040;-73
2021/09/07 09:59:34;;;;;;;11.23;5.63;;;;;;;22.01;42.78;101091.59;5114876;28;20100;-73
2021/09/07 10:02:02;;;;;;;15.90;6.28;;;;;;;22.12;42.53;101086.03;5114659;28;20051;-73
2021/09/07 10:04:32;;;;;;;13.75;6.03;;;;;;;22.30;41.00;101079.84;5114443;28;20405;-73
2021/09/07 10:07:03;;;;;;;13.38;6.05;;;;;;;22.31;41.42;101086.97;5114329;28;20118;-73
2021/09/07 10:09:31;;;;;;;12.23;6.15;;;;;;;22.27;41.21;101083.69;5114585;28;20047;-72
2021/09/07 10:12:09;;;;;;;16.73;6.50;;;;;;;22.41;41.56;101077.78;5114052;28;20044;-73
2021/09/07 10:14:45;;;;;;;12.75;5.72;;;;;;;22.63;40.68;101081.97;5114493;28;20047;-73
2021/09/07 10:17:27;;;;;;;17.85;6.47;;;;;;;22.84;40.15;101085.34;5114205;28;20397;-73
2021/09/07 10:20:03;;;;;;;14.65;5.72;;;;;;;22.96;40.15;101082.41;5114654;28;20036;-72
2021/09/07 10:23:27;;;;;;;10.43;5.97;;;;;;;23.04;39.37;101079.78;5113793;28;20040;-72
2021/09/07 10:25:58;;;;;;;15.77;6.32;;;;;;;23.00;39.43;101078.38;5031600;28;20053;-73
2021/09/07 10:28:35;;;;;;;12.80;5.95;;;;;;;23.03;39.00;101087.09;5112974;28;20072;-72
2021/09/07 10:31:11;;;;;;;14.25;6.05;;;;;;;23.03;39.45;101078.94;5113968;28;20043;-73
2021/09/07 10:33:45;;;;;;;16.13;6.63;;;;;;;23.13;39.71;101076.16;5114198;28;20127;-72
2021/09/07 10:36:16;;;;;;;12.25;5.60;;;;;;;23.15;39.81;101074.13;5113771;28;20043;-72
2021/09/07 10:38:48;;;;;;;11.00;5.65;;;;;;;23.20;39.81;101079.97;5113382;28;20539;-72
2021/09/07 10:41:45;;;;;;;13.07;6.05;;;;;;;23.30;39.84;101075.31;5113522;28;20044;-72
2021/09/07 10:44:29;;;;;;;11.88;6.07;;;;;;;23.48;38.81;101078.03;5113657;28;20044;-73
2021/09/07 10:47:07;;;;;;;14.73;6.05;;;;;;;23.21;39.49;101080.81;5113886;28;20493;-72
2021/09/07 10:49:50;;;;;;;13.60;6.75;;;;;;;23.27;39.70;101070.19;5113977;28;20092;-72
2021/09/07 10:52:22;;;;;;;9.38;6.07;;;;;;;23.15;39.92;101071.41;5113569;28;20134;-72
2021/09/07 10:55:15;;;;;;;11.45;5.47;;;;;;;23.30;39.71;101064.41;5113614;28;20043;-72
2021/09/07 10:58:02;;;;;;;14.07;6.68;;;;;;;23.26;39.58;101073.03;5113662;28;20040;-72
2021/09/07 11:00:32;;;;;;;10.90;5.93;;;;;;;23.25;40.18;101064.03;5113625;28;20424;-72
2021/09/07 11:03:02;;;;;;;11.52;6.20;;;;;;;23.42;39.56;101063.16;5113837;28;20105;-72
2021/09/07 11:05:44;;;;;;;14.45;5.97;;;;;;;23.51;39.38;101060.53;5113749;28;20047;-72
2021/09/07 11:08:14;;;;;;;14.02;6.60;;;;;;;23.62;39.36;101063.03;5113324;28;20051;-72
2021/09/07 11:10:47;;;;;;;11.65;6.30;;;;;;;23.72;39.06;101052.91;5113457;28;20413;-72
2021/09/07 11:13:24;;;;;;;11.73;5.75;;;;;;;23.78;38.80;101056.88;5113268;28;20044;-73
2021/09/07 11:15:54;;;;;;;12.45;6.97;;;;;;;23.65;39.33;101055.44;5113531;28;20044;-72
2021/09/07 11:18:25;;;;;;;28.27;7.18;;;;;;;23.78;39.54;101052.28;5113248;28;20477;-73
2021/09/07 11:20:54;;;;;;;10.25;5.95;;;;;;;23.86;38.90;101055.06;5113411;28;20055;-73
2021/09/07 11:23:25;;;;;;;13.93;6.20;;;;;;;23.92;38.87;101050.84;5113408;28;20397;-73
2021/09/07 11:26:00;;;;;;;12.27;6.95;;;;;;;24.02;38.63;101053.47;5113343;28;20035;-72
2021/09/07 11:28:29;;;;;;;12.45;6.43;;;;;;;24.08;38.91;101050.09;5113240;28;20050;-73
2021/09/07 11:31:01;;;;;;;13.88;6.25;;;;;;;24.19;38.73;101045.22;5113135;28;20075;-72